sensor_id;sensor_type;location;lat;lon;timestamp;P1;durP1;ratioP1;P2;durP2;ratioP2
35693;SDS011;21812;55.536;37.664;2023-05-14T00:01:55;7.20;;;2.00;;
35693;SDS011;21812;55.536;37.664;2023-05-14T00:04:21;6.75;;;2.25;;
35693;SDS011;21812;55.536;37.664;2023-05-14T00:06:47;4.00;;;1.70;;
35693;SDS011;21812;55.536;37.664;2023-05-14T00:09:13;5.45;;;2.03;;
35693;SDS011;21812;55.536;37.664;2023-05-14T00:11:39;3.85;;;1.88;;
35693;SDS011;21812;55.536;37.664;2023-05-14T00:14:04;4.50;;;3.05;;
35693;SDS011;21812;55.536;37.664;2023-05-14T00:16:30;2.70;;;2.30;;
35693;SDS011;21812;55.536;37.664;2023-05-14T00:18:56;3.28;;;2.85;;
35693;SDS011;21812;55.536;37.664;2023-05-14T00:21:21;5.07;;;2.42;;
35693;SDS011;21812;55.536;37.664;2023-05-14T00:23:47;6.70;;;4.00;;
35693;SDS011;21812;55.536;37.664;2023-05-14T00:26:12;4.35;;;3.33;;
35693;SDS011;21812;55.536;37.664;2023-05-14T00:28:39;5.68;;;4.57;;
35693;SDS011;21812;55.536;37.664;2023-05-14T00:31:05;7.40;;;4.35;;
35693;SDS011;21812;55.536;37.664;2023-05-14T00:33:31;8.50;;;5.05;;
35693;SDS011;21812;55.536;37.664;2023-05-14T00:35:56;11.45;;;5.35;;
35693;SDS011;21812;55.536;37.664;2023-05-14T00:38:22;8.00;;;5.15;;
35693;SDS011;21812;55.536;37.664;2023-05-14T00:40:51;4.45;;;3.75;;
35693;SDS011;21812;55.536;37.664;2023-05-14T00:43:20;5.57;;;3.92;;
35693;SDS011;21812;55.536;37.664;2023-05-14T00:45:48;6.03;;;3.05;;
35693;SDS011;21812;55.536;37.664;2023-05-14T00:48:15;12.23;;;4.10;;
35693;SDS011;21812;55.536;37.664;2023-05-14T00:50:41;6.93;;;4.40;;
35693;SDS011;21812;55.536;37.664;2023-05-14T00:53:07;10.68;;;7.18;;
35693;SDS011;21812;55.536;37.664;2023-05-14T00:55:38;7.35;;;4.40;;
35693;SDS011;21812;55.536;37.664;2023-05-14T00:58:09;12.23;;;5.28;;
35693;SDS011;21812;55.536;37.664;2023-05-14T01:00:37;12.25;;;5.13;;
35693;SDS011;21812;55.536;37.664;2023-05-14T01:03:03;13.40;;;4.38;;
35693;SDS011;21812;55.536;37.664;2023-05-14T01:05:33;7.97;;;4.75;;
35693;SDS011;21812;55.536;37.664;2023-05-14T01:08:16;4.90;;;3.40;;
35693;SDS011;21812;55.536;37.664;2023-05-14T01:10:50;7.32;;;3.80;;
35693;SDS011;21812;55.536;37.664;2023-05-14T01:13:23;7.45;;;3.03;;
35693;SDS011;21812;55.536;37.664;2023-05-14T01:15:55;5.05;;;3.40;;
35693;SDS011;21812;55.536;37.664;2023-05-14T01:18:24;3.55;;;3.17;;
35693;SDS011;21812;55.536;37.664;2023-05-14T01:20:52;4.65;;;2.92;;
35693;SDS011;21812;55.536;37.664;2023-05-14T01:23:18;6.60;;;2.80;;
35693;SDS011;21812;55.536;37.664;2023-05-14T01:25:44;4.35;;;2.78;;
35693;SDS011;21812;55.536;37.664;2023-05-14T01:30:39;4.82;;;2.80;;
35693;SDS011;21812;55.536;37.664;2023-05-14T01:33:11;6.25;;;2.85;;
35693;SDS011;21812;55.536;37.664;2023-05-14T01:35:40;3.80;;;2.55;;
35693;SDS011;21812;55.536;37.664;2023-05-14T01:38:08;7.78;;;3.05;;
35693;SDS011;21812;55.536;37.664;2023-05-14T01:40:36;5.63;;;2.83;;
35693;SDS011;21812;55.536;37.664;2023-05-14T01:43:03;4.32;;;3.20;;
35693;SDS011;21812;55.536;37.664;2023-05-14T01:45:29;5.38;;;3.22;;
35693;SDS011;21812;55.536;37.664;2023-05-14T01:47:56;10.38;;;3.72;;
35693;SDS011;21812;55.536;37.664;2023-05-14T01:50:23;7.43;;;4.20;;
35693;SDS011;21812;55.536;37.664;2023-05-14T01:52:48;8.38;;;3.45;;
35693;SDS011;21812;55.536;37.664;2023-05-14T01:55:15;9.25;;;4.70;;
35693;SDS011;21812;55.536;37.664;2023-05-14T01:57:42;9.13;;;4.93;;
35693;SDS011;21812;55.536;37.664;2023-05-14T02:00:08;5.95;;;4.53;;
35693;SDS011;21812;55.536;37.664;2023-05-14T02:02:40;9.50;;;6.03;;
35693;SDS011;21812;55.536;37.664;2023-05-14T02:05:10;7.68;;;5.38;;
35693;SDS011;21812;55.536;37.664;2023-05-14T02:07:36;11.82;;;4.90;;
35693;SDS011;21812;55.536;37.664;2023-05-14T02:10:02;11.50;;;5.35;;
35693;SDS011;21812;55.536;37.664;2023-05-14T02:12:31;20.55;;;5.65;;
35693;SDS011;21812;55.536;37.664;2023-05-14T02:14:58;13.65;;;5.82;;
35693;SDS011;21812;55.536;37.664;2023-05-14T02:17:24;6.75;;;3.80;;
35693;SDS011;21812;55.536;37.664;2023-05-14T02:19:51;6.85;;;3.92;;
35693;SDS011;21812;55.536;37.664;2023-05-14T02:22:17;9.85;;;4.57;;
35693;SDS011;21812;55.536;37.664;2023-05-14T02:24:43;3.40;;;2.95;;
35693;SDS011;21812;55.536;37.664;2023-05-14T02:27:08;6.00;;;3.42;;
35693;SDS011;21812;55.536;37.664;2023-05-14T02:29:37;6.93;;;2.60;;
35693;SDS011;21812;55.536;37.664;2023-05-14T02:32:02;5.22;;;2.60;;
35693;SDS011;21812;55.536;37.664;2023-05-14T02:34:28;4.25;;;2.88;;
35693;SDS011;21812;55.536;37.664;2023-05-14T02:36:54;5.43;;;2.67;;
35693;SDS011;21812;55.536;37.664;2023-05-14T02:39:20;6.15;;;2.60;;
35693;SDS011;21812;55.536;37.664;2023-05-14T02:41:46;3.70;;;2.03;;
35693;SDS011;21812;55.536;37.664;2023-05-14T02:44:12;5.15;;;2.45;;
35693;SDS011;21812;55.536;37.664;2023-05-14T02:46:38;3.10;;;1.88;;
35693;SDS011;21812;55.536;37.664;2023-05-14T02:49:04;5.00;;;2.30;;
35693;SDS011;21812;55.536;37.664;2023-05-14T02:51:30;5.35;;;2.17;;
35693;SDS011;21812;55.536;37.664;2023-05-14T02:53:56;5.32;;;2.13;;
35693;SDS011;21812;55.536;37.664;2023-05-14T02:56:22;5.88;;;2.22;;
35693;SDS011;21812;55.536;37.664;2023-05-14T02:58:48;2.60;;;1.80;;
35693;SDS011;21812;55.536;37.664;2023-05-14T03:01:14;4.95;;;1.98;;
35693;SDS011;21812;55.536;37.664;2023-05-14T03:03:39;2.42;;;1.75;;
35693;SDS011;21812;55.536;37.664;2023-05-14T03:06:05;4.70;;;1.70;;
35693;SDS011;21812;55.536;37.664;2023-05-14T03:08:31;4.80;;;2.17;;
35693;SDS011;21812;55.536;37.664;2023-05-14T03:10:57;5.38;;;2.20;;
35693;SDS011;21812;55.536;37.664;2023-05-14T03:13:24;3.13;;;1.88;;
35693;SDS011;21812;55.536;37.664;2023-05-14T03:15:50;3.03;;;2.35;;
35693;SDS011;21812;55.536;37.664;2023-05-14T03:18:19;2.08;;;1.65;;
35693;SDS011;21812;55.536;37.664;2023-05-14T03:20:45;18.35;;;3.50;;
35693;SDS011;21812;55.536;37.664;2023-05-14T03:23:11;3.00;;;1.38;;
35693;SDS011;21812;55.536;37.664;2023-05-14T03:25:37;2.08;;;1.30;;
35693;SDS011;21812;55.536;37.664;2023-05-14T03:28:03;5.78;;;1.55;;
35693;SDS011;21812;55.536;37.664;2023-05-14T03:30:29;4.43;;;3.15;;
35693;SDS011;21812;55.536;37.664;2023-05-14T03:32:55;3.00;;;1.60;;
35693;SDS011;21812;55.536;37.664;2023-05-14T03:35:21;5.80;;;2.38;;
35693;SDS011;21812;55.536;37.664;2023-05-14T03:37:47;3.45;;;1.90;;
35693;SDS011;21812;55.536;37.664;2023-05-14T03:40:13;2.80;;;1.52;;
35693;SDS011;21812;55.536;37.664;2023-05-14T03:42:40;2.00;;;1.77;;
35693;SDS011;21812;55.536;37.664;2023-05-14T03:45:06;2.97;;;1.45;;
35693;SDS011;21812;55.536;37.664;2023-05-14T03:47:33;6.90;;;1.75;;
35693;SDS011;21812;55.536;37.664;2023-05-14T03:49:59;1.98;;;1.48;;
35693;SDS011;21812;55.536;37.664;2023-05-14T03:52:25;2.63;;;1.90;;
35693;SDS011;21812;55.536;37.664;2023-05-14T03:54:51;6.13;;;2.10;;
35693;SDS011;21812;55.536;37.664;2023-05-14T03:57:17;7.25;;;1.83;;
35693;SDS011;21812;55.536;37.664;2023-05-14T03:59:42;2.67;;;1.88;;
35693;SDS011;21812;55.536;37.664;2023-05-14T04:02:08;6.47;;;1.90;;
35693;SDS011;21812;55.536;37.664;2023-05-14T04:04:34;7.68;;;1.80;;
35693;SDS011;21812;55.536;37.664;2023-05-14T04:07:01;7.50;;;2.53;;
35693;SDS011;21812;55.536;37.664;2023-05-14T04:09:27;5.05;;;2.13;;
35693;SDS011;21812;55.536;37.664;2023-05-14T04:11:53;18.60;;;2.85;;
35693;SDS011;21812;55.536;37.664;2023-05-14T04:14:19;44.67;;;3.25;;
35693;SDS011;21812;55.536;37.664;2023-05-14T04:16:46;7.72;;;2.67;;
35693;SDS011;21812;55.536;37.664;2023-05-14T04:19:12;7.72;;;1.98;;
35693;SDS011;21812;55.536;37.664;2023-05-14T04:21:38;7.50;;;1.90;;
35693;SDS011;21812;55.536;37.664;2023-05-14T04:24:04;8.45;;;2.08;;
35693;SDS011;21812;55.536;37.664;2023-05-14T04:26:30;6.80;;;2.53;;
35693;SDS011;21812;55.536;37.664;2023-05-14T04:28:56;7.78;;;2.15;;
35693;SDS011;21812;55.536;37.664;2023-05-14T04:31:22;6.00;;;2.10;;
35693;SDS011;21812;55.536;37.664;2023-05-14T04:33:48;3.60;;;2.08;;
35693;SDS011;21812;55.536;37.664;2023-05-14T04:36:14;7.57;;;2.20;;
35693;SDS011;21812;55.536;37.664;2023-05-14T04:38:40;7.82;;;2.45;;
35693;SDS011;21812;55.536;37.664;2023-05-14T04:41:06;4.15;;;1.85;;
35693;SDS011;21812;55.536;37.664;2023-05-14T04:43:32;5.18;;;1.88;;
35693;SDS011;21812;55.536;37.664;2023-05-14T04:45:58;3.15;;;1.77;;
35693;SDS011;21812;55.536;37.664;2023-05-14T04:48:23;5.00;;;2.03;;
35693;SDS011;21812;55.536;37.664;2023-05-14T04:50:49;8.30;;;2.45;;
35693;SDS011;21812;55.536;37.664;2023-05-14T04:53:16;4.07;;;2.05;;
35693;SDS011;21812;55.536;37.664;2023-05-14T04:55:42;28.77;;;4.40;;
35693;SDS011;21812;55.536;37.664;2023-05-14T04:58:07;8.40;;;2.47;;
35693;SDS011;21812;55.536;37.664;2023-05-14T05:00:33;5.60;;;2.30;;
35693;SDS011;21812;55.536;37.664;2023-05-14T05:02:59;3.40;;;1.92;;
35693;SDS011;21812;55.536;37.664;2023-05-14T05:05:25;4.97;;;1.85;;
35693;SDS011;21812;55.536;37.664;2023-05-14T05:07:50;2.42;;;1.55;;
35693;SDS011;21812;55.536;37.664;2023-05-14T05:10:16;5.07;;;1.83;;
35693;SDS011;21812;55.536;37.664;2023-05-14T05:12:42;3.95;;;1.73;;
35693;SDS011;21812;55.536;37.664;2023-05-14T05:15:07;6.43;;;1.30;;
35693;SDS011;21812;55.536;37.664;2023-05-14T05:17:34;3.20;;;1.58;;
35693;SDS011;21812;55.536;37.664;2023-05-14T05:20:00;4.30;;;1.67;;
35693;SDS011;21812;55.536;37.664;2023-05-14T05:22:25;5.30;;;1.98;;
35693;SDS011;21812;55.536;37.664;2023-05-14T05:24:51;1.70;;;1.25;;
35693;SDS011;21812;55.536;37.664;2023-05-14T05:27:17;8.65;;;2.05;;
35693;SDS011;21812;55.536;37.664;2023-05-14T05:29:45;2.55;;;1.85;;
35693;SDS011;21812;55.536;37.664;2023-05-14T05:32:11;8.25;;;3.08;;
35693;SDS011;21812;55.536;37.664;2023-05-14T05:34:37;4.65;;;1.88;;
35693;SDS011;21812;55.536;37.664;2023-05-14T05:37:03;4.47;;;2.10;;
35693;SDS011;21812;55.536;37.664;2023-05-14T05:39:30;7.82;;;2.58;;
35693;SDS011;21812;55.536;37.664;2023-05-14T05:41:59;3.90;;;1.85;;
35693;SDS011;21812;55.536;37.664;2023-05-14T05:44:27;13.75;;;2.85;;
35693;SDS011;21812;55.536;37.664;2023-05-14T05:46:52;7.07;;;2.00;;
35693;SDS011;21812;55.536;37.664;2023-05-14T05:49:21;5.07;;;1.70;;
35693;SDS011;21812;55.536;37.664;2023-05-14T05:51:47;8.77;;;2.08;;
35693;SDS011;21812;55.536;37.664;2023-05-14T05:54:13;4.20;;;2.30;;
35693;SDS011;21812;55.536;37.664;2023-05-14T05:56:39;4.00;;;1.75;;
35693;SDS011;21812;55.536;37.664;2023-05-14T05:59:05;2.72;;;2.28;;
35693;SDS011;21812;55.536;37.664;2023-05-14T06:01:31;6.07;;;1.83;;
35693;SDS011;21812;55.536;37.664;2023-05-14T06:03:57;3.72;;;1.80;;
35693;SDS011;21812;55.536;37.664;2023-05-14T06:06:23;3.53;;;2.05;;
35693;SDS011;21812;55.536;37.664;2023-05-14T06:08:48;7.47;;;2.63;;
35693;SDS011;21812;55.536;37.664;2023-05-14T06:11:14;7.57;;;2.83;;
35693;SDS011;21812;55.536;37.664;2023-05-14T06:13:41;5.75;;;2.47;;
35693;SDS011;21812;55.536;37.664;2023-05-14T06:16:07;9.75;;;2.75;;
35693;SDS011;21812;55.536;37.664;2023-05-14T06:18:33;9.73;;;3.60;;
35693;SDS011;21812;55.536;37.664;2023-05-14T06:20:58;11.32;;;2.72;;
35693;SDS011;21812;55.536;37.664;2023-05-14T06:23:24;5.35;;;2.10;;
35693;SDS011;21812;55.536;37.664;2023-05-14T06:25:51;5.50;;;2.05;;
35693;SDS011;21812;55.536;37.664;2023-05-14T06:28:16;5.32;;;1.70;;
35693;SDS011;21812;55.536;37.664;2023-05-14T06:30:42;7.55;;;2.05;;
35693;SDS011;21812;55.536;37.664;2023-05-14T06:33:08;4.65;;;1.80;;
35693;SDS011;21812;55.536;37.664;2023-05-14T06:35:34;8.13;;;1.45;;
35693;SDS011;21812;55.536;37.664;2023-05-14T06:38:00;7.18;;;1.42;;
35693;SDS011;21812;55.536;37.664;2023-05-14T06:40:25;4.68;;;1.77;;
35693;SDS011;21812;55.536;37.664;2023-05-14T06:42:51;3.75;;;1.30;;
35693;SDS011;21812;55.536;37.664;2023-05-14T06:45:18;5.65;;;1.52;;
35693;SDS011;21812;55.536;37.664;2023-05-14T06:47:44;3.05;;;1.42;;
35693;SDS011;21812;55.536;37.664;2023-05-14T06:50:09;1.52;;;1.17;;
35693;SDS011;21812;55.536;37.664;2023-05-14T06:52:35;6.50;;;1.63;;
35693;SDS011;21812;55.536;37.664;2023-05-14T06:55:01;3.88;;;1.50;;
35693;SDS011;21812;55.536;37.664;2023-05-14T06:57:27;5.18;;;1.35;;
35693;SDS011;21812;55.536;37.664;2023-05-14T06:59:53;4.32;;;1.08;;
35693;SDS011;21812;55.536;37.664;2023-05-14T07:02:19;2.28;;;1.20;;
35693;SDS011;21812;55.536;37.664;2023-05-14T07:04:45;1.77;;;1.10;;
35693;SDS011;21812;55.536;37.664;2023-05-14T07:07:10;2.17;;;0.98;;
35693;SDS011;21812;55.536;37.664;2023-05-14T07:09:40;2.03;;;1.40;;
35693;SDS011;21812;55.536;37.664;2023-05-14T07:12:06;2.50;;;0.93;;
35693;SDS011;21812;55.536;37.664;2023-05-14T07:14:32;1.98;;;1.02;;
35693;SDS011;21812;55.536;37.664;2023-05-14T07:16:58;2.55;;;1.25;;
35693;SDS011;21812;55.536;37.664;2023-05-14T07:19:24;1.85;;;1.48;;
35693;SDS011;21812;55.536;37.664;2023-05-14T07:21:53;2.03;;;1.20;;
35693;SDS011;21812;55.536;37.664;2023-05-14T07:24:18;1.67;;;1.10;;
35693;SDS011;21812;55.536;37.664;2023-05-14T07:26:44;4.22;;;1.58;;
35693;SDS011;21812;55.536;37.664;2023-05-14T07:29:10;2.65;;;0.90;;
35693;SDS011;21812;55.536;37.664;2023-05-14T07:31:35;1.65;;;1.05;;
35693;SDS011;21812;55.536;37.664;2023-05-14T07:34:01;3.58;;;1.20;;
35693;SDS011;21812;55.536;37.664;2023-05-14T07:36:27;5.68;;;3.95;;
35693;SDS011;21812;55.536;37.664;2023-05-14T07:38:52;2.35;;;1.88;;
35693;SDS011;21812;55.536;37.664;2023-05-14T07:41:18;1.33;;;1.13;;
35693;SDS011;21812;55.536;37.664;2023-05-14T07:43:44;1.30;;;1.10;;
35693;SDS011;21812;55.536;37.664;2023-05-14T07:46:10;1.80;;;0.80;;
35693;SDS011;21812;55.536;37.664;2023-05-14T07:48:36;4.97;;;1.10;;
35693;SDS011;21812;55.536;37.664;2023-05-14T07:51:02;1.10;;;1.00;;
35693;SDS011;21812;55.536;37.664;2023-05-14T07:53:28;1.45;;;0.82;;
35693;SDS011;21812;55.536;37.664;2023-05-14T07:55:53;1.60;;;1.27;;
35693;SDS011;21812;55.536;37.664;2023-05-14T07:58:19;1.80;;;1.08;;
35693;SDS011;21812;55.536;37.664;2023-05-14T08:00:45;2.13;;;0.90;;
35693;SDS011;21812;55.536;37.664;2023-05-14T08:03:11;3.78;;;0.93;;
35693;SDS011;21812;55.536;37.664;2023-05-14T08:05:36;1.02;;;0.80;;
35693;SDS011;21812;55.536;37.664;2023-05-14T08:08:02;5.38;;;0.70;;
35693;SDS011;21812;55.536;37.664;2023-05-14T08:10:28;3.17;;;0.80;;
35693;SDS011;21812;55.536;37.664;2023-05-14T08:12:53;36.88;;;3.45;;
35693;SDS011;21812;55.536;37.664;2023-05-14T08:15:19;3.00;;;0.95;;
35693;SDS011;21812;55.536;37.664;2023-05-14T08:17:45;1.65;;;0.73;;
35693;SDS011;21812;55.536;37.664;2023-05-14T08:20:10;1.70;;;0.85;;
35693;SDS011;21812;55.536;37.664;2023-05-14T08:22:36;0.68;;;0.60;;
35693;SDS011;21812;55.536;37.664;2023-05-14T08:25:02;4.65;;;2.03;;
35693;SDS011;21812;55.536;37.664;2023-05-14T08:27:32;1.65;;;0.88;;
35693;SDS011;21812;55.536;37.664;2023-05-14T08:29:58;3.00;;;0.93;;
35693;SDS011;21812;55.536;37.664;2023-05-14T08:32:24;3.42;;;1.55;;
35693;SDS011;21812;55.536;37.664;2023-05-14T08:34:50;4.85;;;1.48;;
35693;SDS011;21812;55.536;37.664;2023-05-14T08:37:16;3.33;;;1.00;;
35693;SDS011;21812;55.536;37.664;2023-05-14T08:39:42;4.97;;;1.10;;
35693;SDS011;21812;55.536;37.664;2023-05-14T08:42:08;11.30;;;1.17;;
35693;SDS011;21812;55.536;37.664;2023-05-14T08:44:46;3.75;;;1.05;;
35693;SDS011;21812;55.536;37.664;2023-05-14T08:47:14;2.15;;;1.05;;
35693;SDS011;21812;55.536;37.664;2023-05-14T08:49:45;1.80;;;0.82;;
35693;SDS011;21812;55.536;37.664;2023-05-14T08:52:12;5.22;;;1.58;;
35693;SDS011;21812;55.536;37.664;2023-05-14T08:54:41;4.22;;;1.60;;
35693;SDS011;21812;55.536;37.664;2023-05-14T08:57:10;3.90;;;1.00;;
35693;SDS011;21812;55.536;37.664;2023-05-14T08:59:36;3.50;;;1.05;;
35693;SDS011;21812;55.536;37.664;2023-05-14T09:02:02;6.68;;;1.73;;
35693;SDS011;21812;55.536;37.664;2023-05-14T09:04:30;2.83;;;1.27;;
35693;SDS011;21812;55.536;37.664;2023-05-14T09:06:57;1.67;;;0.90;;
35693;SDS011;21812;55.536;37.664;2023-05-14T09:09:26;4.07;;;1.33;;
35693;SDS011;21812;55.536;37.664;2023-05-14T09:11:52;6.75;;;1.50;;
35693;SDS011;21812;55.536;37.664;2023-05-14T09:14:18;4.85;;;0.98;;
35693;SDS011;21812;55.536;37.664;2023-05-14T09:16:46;2.75;;;1.27;;
35693;SDS011;21812;55.536;37.664;2023-05-14T09:19:13;3.95;;;1.30;;
35693;SDS011;21812;55.536;37.664;2023-05-14T09:21:40;7.80;;;3.05;;
35693;SDS011;21812;55.536;37.664;2023-05-14T09:24:06;4.45;;;1.60;;
35693;SDS011;21812;55.536;37.664;2023-05-14T09:26:33;4.50;;;1.15;;
35693;SDS011;21812;55.536;37.664;2023-05-14T09:29:00;4.97;;;1.25;;
35693;SDS011;21812;55.536;37.664;2023-05-14T09:31:31;3.72;;;1.50;;
35693;SDS011;21812;55.536;37.664;2023-05-14T09:33:58;2.03;;;1.25;;
35693;SDS011;21812;55.536;37.664;2023-05-14T09:36:25;1.80;;;1.02;;
35693;SDS011;21812;55.536;37.664;2023-05-14T09:38:57;1.40;;;0.82;;
35693;SDS011;21812;55.536;37.664;2023-05-14T09:41:23;2.83;;;1.35;;
35693;SDS011;21812;55.536;37.664;2023-05-14T09:43:49;3.45;;;1.40;;
35693;SDS011;21812;55.536;37.664;2023-05-14T09:46:16;4.88;;;1.60;;
35693;SDS011;21812;55.536;37.664;2023-05-14T09:48:42;3.95;;;1.30;;
35693;SDS011;21812;55.536;37.664;2023-05-14T09:51:10;6.22;;;1.00;;
35693;SDS011;21812;55.536;37.664;2023-05-14T09:53:36;6.35;;;1.77;;
35693;SDS011;21812;55.536;37.664;2023-05-14T09:56:01;2.35;;;0.90;;
35693;SDS011;21812;55.536;37.664;2023-05-14T09:58:27;17.00;;;4.20;;
35693;SDS011;21812;55.536;37.664;2023-05-14T10:00:53;14.57;;;4.35;;
35693;SDS011;21812;55.536;37.664;2023-05-14T10:03:22;35.00;;;9.48;;
35693;SDS011;21812;55.536;37.664;2023-05-14T10:05:50;23.63;;;5.95;;
35693;SDS011;21812;55.536;37.664;2023-05-14T10:08:34;17.00;;;5.65;;
35693;SDS011;21812;55.536;37.664;2023-05-14T10:11:07;3.63;;;1.58;;
35693;SDS011;21812;55.536;37.664;2023-05-14T10:16:27;17.42;;;2.13;;
35693;SDS011;21812;55.536;37.664;2023-05-14T10:18:59;6.90;;;2.40;;
35693;SDS011;21812;55.536;37.664;2023-05-14T10:21:30;6.53;;;2.13;;
35693;SDS011;21812;55.536;37.664;2023-05-14T10:24:00;4.32;;;2.00;;
35693;SDS011;21812;55.536;37.664;2023-05-14T10:26:28;6.55;;;1.67;;
35693;SDS011;21812;55.536;37.664;2023-05-14T10:28:55;4.32;;;1.13;;
35693;SDS011;21812;55.536;37.664;2023-05-14T10:32:07;3.67;;;1.35;;
35693;SDS011;21812;55.536;37.664;2023-05-14T10:34:33;5.25;;;1.70;;
35693;SDS011;21812;55.536;37.664;2023-05-14T10:37:06;2.92;;;0.93;;
35693;SDS011;21812;55.536;37.664;2023-05-14T10:42:06;2.33;;;1.13;;
35693;SDS011;21812;55.536;37.664;2023-05-14T10:44:34;1.55;;;1.00;;
35693;SDS011;21812;55.536;37.664;2023-05-14T10:47:01;1.23;;;1.10;;
35693;SDS011;21812;55.536;37.664;2023-05-14T10:49:27;8.02;;;1.17;;
35693;SDS011;21812;55.536;37.664;2023-05-14T10:51:53;4.40;;;1.33;;
35693;SDS011;21812;55.536;37.664;2023-05-14T10:54:19;2.55;;;1.73;;
35693;SDS011;21812;55.536;37.664;2023-05-14T10:56:47;2.08;;;0.85;;
35693;SDS011;21812;55.536;37.664;2023-05-14T10:59:16;1.75;;;0.95;;
35693;SDS011;21812;55.536;37.664;2023-05-14T11:01:42;3.42;;;1.10;;
35693;SDS011;21812;55.536;37.664;2023-05-14T11:04:09;3.45;;;0.95;;
35693;SDS011;21812;55.536;37.664;2023-05-14T11:06:43;2.95;;;1.05;;
35693;SDS011;21812;55.536;37.664;2023-05-14T11:09:12;4.55;;;0.93;;
35693;SDS011;21812;55.536;37.664;2023-05-14T11:11:41;5.32;;;1.73;;
35693;SDS011;21812;55.536;37.664;2023-05-14T11:14:08;2.25;;;0.82;;
35693;SDS011;21812;55.536;37.664;2023-05-14T11:16:34;1.73;;;1.30;;
35693;SDS011;21812;55.536;37.664;2023-05-14T11:19:02;1.90;;;1.00;;
35693;SDS011;21812;55.536;37.664;2023-05-14T11:21:29;2.95;;;1.42;;
35693;SDS011;21812;55.536;37.664;2023-05-14T11:23:58;2.72;;;1.27;;
35693;SDS011;21812;55.536;37.664;2023-05-14T11:26:24;13.80;;;1.98;;
35693;SDS011;21812;55.536;37.664;2023-05-14T11:28:50;2.17;;;1.48;;
35693;SDS011;21812;55.536;37.664;2023-05-14T11:31:16;6.93;;;2.00;;
35693;SDS011;21812;55.536;37.664;2023-05-14T11:33:42;3.65;;;2.33;;
35693;SDS011;21812;55.536;37.664;2023-05-14T11:36:11;7.47;;;1.65;;
35693;SDS011;21812;55.536;37.664;2023-05-14T11:38:47;2.03;;;1.05;;
35693;SDS011;21812;55.536;37.664;2023-05-14T11:41:15;1.60;;;0.93;;
35693;SDS011;21812;55.536;37.664;2023-05-14T11:43:41;2.97;;;2.05;;
35693;SDS011;21812;55.536;37.664;2023-05-14T11:46:07;1.75;;;1.10;;
35693;SDS011;21812;55.536;37.664;2023-05-14T11:48:32;2.53;;;0.98;;
35693;SDS011;21812;55.536;37.664;2023-05-14T11:50:59;2.40;;;1.08;;
35693;SDS011;21812;55.536;37.664;2023-05-14T11:53:25;1.75;;;1.00;;
35693;SDS011;21812;55.536;37.664;2023-05-14T11:55:53;2.50;;;1.23;;
35693;SDS011;21812;55.536;37.664;2023-05-14T11:58:19;1.63;;;1.25;;
35693;SDS011;21812;55.536;37.664;2023-05-14T12:00:48;3.95;;;1.10;;
35693;SDS011;21812;55.536;37.664;2023-05-14T12:03:15;4.75;;;1.40;;
35693;SDS011;21812;55.536;37.664;2023-05-14T12:05:53;3.55;;;1.13;;
35693;SDS011;21812;55.536;37.664;2023-05-14T12:08:20;5.53;;;1.55;;
35693;SDS011;21812;55.536;37.664;2023-05-14T12:10:47;3.38;;;1.05;;
35693;SDS011;21812;55.536;37.664;2023-05-14T12:13:16;2.08;;;0.90;;
35693;SDS011;21812;55.536;37.664;2023-05-14T12:15:55;1.63;;;0.88;;
35693;SDS011;21812;55.536;37.664;2023-05-14T12:18:29;2.80;;;1.30;;
35693;SDS011;21812;55.536;37.664;2023-05-14T12:20:55;2.05;;;1.08;;
35693;SDS011;21812;55.536;37.664;2023-05-14T12:23:27;3.40;;;1.20;;
35693;SDS011;21812;55.536;37.664;2023-05-14T12:25:54;3.17;;;1.45;;
35693;SDS011;21812;55.536;37.664;2023-05-14T12:28:21;2.53;;;1.08;;
35693;SDS011;21812;55.536;37.664;2023-05-14T12:30:47;2.88;;;1.50;;
35693;SDS011;21812;55.536;37.664;2023-05-14T12:33:20;5.13;;;1.73;;
35693;SDS011;21812;55.536;37.664;2023-05-14T12:35:51;1.75;;;0.80;;
35693;SDS011;21812;55.536;37.664;2023-05-14T12:38:18;1.90;;;1.20;;
35693;SDS011;21812;55.536;37.664;2023-05-14T12:40:44;6.13;;;1.52;;
35693;SDS011;21812;55.536;37.664;2023-05-14T12:43:10;3.90;;;1.15;;
35693;SDS011;21812;55.536;37.664;2023-05-14T12:45:35;2.10;;;1.30;;
35693;SDS011;21812;55.536;37.664;2023-05-14T12:48:01;1.95;;;1.50;;
35693;SDS011;21812;55.536;37.664;2023-05-14T12:50:27;3.88;;;1.15;;
35693;SDS011;21812;55.536;37.664;2023-05-14T12:52:53;3.65;;;2.00;;
35693;SDS011;21812;55.536;37.664;2023-05-14T12:55:20;1.77;;;1.50;;
35693;SDS011;21812;55.536;37.664;2023-05-14T12:57:46;5.47;;;1.90;;
35693;SDS011;21812;55.536;37.664;2023-05-14T13:00:12;2.17;;;1.30;;
35693;SDS011;21812;55.536;37.664;2023-05-14T13:02:38;3.35;;;1.50;;
35693;SDS011;21812;55.536;37.664;2023-05-14T13:05:04;4.47;;;1.80;;
35693;SDS011;21812;55.536;37.664;2023-05-14T13:07:30;4.03;;;1.58;;
35693;SDS011;21812;55.536;37.664;2023-05-14T13:09:56;2.33;;;1.30;;
35693;SDS011;21812;55.536;37.664;2023-05-14T13:12:22;5.22;;;2.00;;
35693;SDS011;21812;55.536;37.664;2023-05-14T13:14:48;3.63;;;2.10;;
35693;SDS011;21812;55.536;37.664;2023-05-14T13:17:14;2.38;;;1.58;;
35693;SDS011;21812;55.536;37.664;2023-05-14T13:19:40;5.78;;;1.73;;
35693;SDS011;21812;55.536;37.664;2023-05-14T13:22:06;3.22;;;1.88;;
35693;SDS011;21812;55.536;37.664;2023-05-14T13:24:32;2.40;;;1.17;;
35693;SDS011;21812;55.536;37.664;2023-05-14T13:26:58;12.52;;;2.20;;
35693;SDS011;21812;55.536;37.664;2023-05-14T13:29:24;3.50;;;2.30;;
35693;SDS011;21812;55.536;37.664;2023-05-14T13:31:50;2.95;;;1.30;;
35693;SDS011;21812;55.536;37.664;2023-05-14T13:34:16;1.88;;;1.35;;
35693;SDS011;21812;55.536;37.664;2023-05-14T13:36:41;2.35;;;1.25;;
35693;SDS011;21812;55.536;37.664;2023-05-14T13:39:09;3.42;;;1.33;;
35693;SDS011;21812;55.536;37.664;2023-05-14T13:41:37;2.20;;;1.23;;
35693;SDS011;21812;55.536;37.664;2023-05-14T13:44:03;3.45;;;1.48;;
35693;SDS011;21812;55.536;37.664;2023-05-14T13:46:29;2.38;;;1.77;;
35693;SDS011;21812;55.536;37.664;2023-05-14T13:48:54;4.15;;;1.83;;
35693;SDS011;21812;55.536;37.664;2023-05-14T13:51:23;6.68;;;1.50;;
35693;SDS011;21812;55.536;37.664;2023-05-14T13:53:49;2.03;;;1.52;;
35693;SDS011;21812;55.536;37.664;2023-05-14T13:56:15;2.63;;;1.90;;
35693;SDS011;21812;55.536;37.664;2023-05-14T13:58:40;3.90;;;1.98;;
35693;SDS011;21812;55.536;37.664;2023-05-14T14:01:06;4.10;;;1.65;;
35693;SDS011;21812;55.536;37.664;2023-05-14T14:03:32;4.50;;;3.00;;
35693;SDS011;21812;55.536;37.664;2023-05-14T14:05:57;3.28;;;2.03;;
35693;SDS011;21812;55.536;37.664;2023-05-14T14:08:23;3.22;;;1.77;;
35693;SDS011;21812;55.536;37.664;2023-05-14T14:10:49;4.07;;;2.00;;
35693;SDS011;21812;55.536;37.664;2023-05-14T14:13:15;2.65;;;1.40;;
35693;SDS011;21812;55.536;37.664;2023-05-14T14:15:40;4.25;;;1.65;;
35693;SDS011;21812;55.536;37.664;2023-05-14T14:18:07;4.45;;;1.33;;
35693;SDS011;21812;55.536;37.664;2023-05-14T14:20:33;3.20;;;1.50;;
35693;SDS011;21812;55.536;37.664;2023-05-14T14:22:59;3.97;;;1.77;;
35693;SDS011;21812;55.536;37.664;2023-05-14T14:25:25;41.10;;;10.32;;
35693;SDS011;21812;55.536;37.664;2023-05-14T14:27:51;112.30;;;26.48;;
35693;SDS011;21812;55.536;37.664;2023-05-14T14:30:16;84.97;;;20.23;;
35693;SDS011;21812;55.536;37.664;2023-05-14T14:32:47;36.30;;;10.48;;
35693;SDS011;21812;55.536;37.664;2023-05-14T14:35:14;24.52;;;8.10;;
35693;SDS011;21812;55.536;37.664;2023-05-14T14:37:41;68.55;;;15.38;;
35693;SDS011;21812;55.536;37.664;2023-05-14T14:40:09;31.05;;;10.00;;